Time;durP1;ratioP1;P1;durP2;ratioP2;P2;SDS_P1;SDS_P2;PMS_P1;PMS_P2;Temp;Humidity;BMP_temperature;BMP_pressure;BME280_temperature;BME280_humidity;BME280_pressure;Samples;Min_cycle;Max_cycle;Signal;HPM_P1;HPM_P2
2024/04/16 00:00:23;;;;;;;28.20;1.67;;;8.90;92.10;;;;;;5534648;25;20012;-72
2024/04/16 00:02:49;;;;;;;2.17;0.60;;;8.80;92.00;;;;;;5550086;25;20000;-72
2024/04/16 00:05:15;;;;;;;327.08;10.82;;;8.90;92.00;;;;;;5555782;25;20001;-72
2024/04/16 00:07:41;;;;;;;447.73;19.08;;;8.90;92.00;;;;;;5555148;25;19997;-72
2024/04/16 00:10:07;;;;;;;127.28;5.10;;;8.90;92.00;;;;;;5548212;25;19992;-73
2024/04/16 00:12:32;;;;;;;108.95;3.72;;;8.90;92.10;;;;;;5535380;25;20320;-73
2024/04/16 00:15:14;;;;;;;1.83;1.15;;;8.90;92.10;;;;;;5516250;25;19996;-73
2024/04/16 00:17:39;;;;;;;210.70;5.22;;;8.90;92.10;;;;;;5517130;25;19997;-73
2024/04/16 00:20:06;;;;;;;682.30;30.30;;;8.90;92.10;;;;;;5496792;25;20444;-73
2024/04/16 00:22:33;;;;;;;467.48;19.42;;;8.90;92.20;;;;;;5549486;25;19997;-73
2024/04/16 00:24:59;;;;;;;13.95;0.88;;;8.90;92.10;;;;;;5540487;25;20009;-73
2024/04/16 00:27:25;;;;;;;2.10;0.70;;;8.90;92.10;;;;;;5546870;25;20072;-73
2024/04/16 00:29:50;;;;;;;126.97;7.28;;;9.00;92.10;;;;;;5540578;25;20344;-73
2024/04/16 00:32:16;;;;;;;108.50;4.00;;;9.00;92.10;;;;;;5539620;25;20007;-74
2024/04/16 00:34:41;;;;;;;0.52;0.52;;;8.90;92.00;;;;;;5554379;25;20004;-73
2024/04/16 00:37:07;;;;;;;300.17;10.30;;;8.90;92.00;;;;;;5526180;25;20429;-74
2024/04/16 00:39:33;;;;;;;2.22;0.85;;;9.00;92.00;;;;;;5536984;25;19997;-73
2024/04/16 00:41:59;;;;;;;56.53;10.85;;;8.90;92.00;;;;;;5540230;25;19989;-73
2024/04/16 00:44:24;;;;;;;243.00;5.30;;;8.90;92.10;;;;;;5553149;25;19993;-74
2024/04/16 00:46:54;;;;;;;1.48;0.93;;;9.00;92.10;;;;;;5541368;25;19993;-73
2024/04/16 00:49:20;;;;;;;287.75;11.43;;;8.90;92.10;;;;;;5544833;25;19997;-74
2024/04/16 00:51:46;;;;;;;58.47;3.25;;;8.90;92.10;;;;;;5538662;25;19998;-73
2024/04/16 00:54:12;;;;;;;2.80;0.98;;;8.90;92.10;;;;;;5552238;25;20015;-73
2024/04/16 00:56:39;;;;;;;3.13;0.60;;;8.90;92.10;;;;;;5541012;25;19997;-74
2024/04/16 00:59:06;;;;;;;106.38;8.95;;;8.90;92.10;;;;;;5549440;25;19997;-73
2024/04/16 01:01:32;;;;;;;200.68;5.80;;;8.80;92.10;;;;;;5553838;25;20480;-73
2024/04/16 01:03:58;;;;;;;2.58;0.77;;;8.80;92.00;;;;;;5549671;25;20007;-73
2024/04/16 01:06:24;;;;;;;177.48;5.60;;;8.80;92.00;;;;;;5537114;25;19998;-73
2024/04/16 01:08:49;;;;;;;135.45;4.45;;;8.80;92.00;;;;;;5552524;25;20013;-73
2024/04/16 01:11:27;;;;;;;20.10;1.55;;;8.80;92.00;;;;;;5545238;25;20012;-73
2024/04/16 01:13:56;;;;;;;1.20;0.60;;;8.70;91.70;;;;;;5547821;25;20002;-73
2024/04/16 01:16:22;;;;;;;488.08;21.17;;;8.70;91.80;;;;;;5549244;25;20009;-73
2024/04/16 01:18:48;;;;;;;3.00;0.80;;;8.70;91.80;;;;;;5540146;25;20013;-73
2024/04/16 01:21:14;;;;;;;178.00;5.65;;;8.70;91.80;;;;;;5546395;25;20466;-73
2024/04/16 01:23:39;;;;;;;234.98;12.02;;;8.70;91.70;;;;;;5535904;25;19997;-73
2024/04/16 01:26:05;;;;;;;0.35;0.30;;;8.70;91.60;;;;;;5555497;25;20072;-73
2024/04/16 01:28:31;;;;;;;221.63;7.00;;;8.70;91.70;;;;;;5544753;25;20008;-73
2024/04/16 01:30:56;;;;;;;0.55;0.50;;;8.70;91.70;;;;;;5556129;25;20001;-73
2024/04/16 01:33:22;;;;;;;1.63;0.55;;;8.70;91.70;;;;;;5550003;25;20011;-73
2024/04/16 01:35:47;;;;;;;127.30;5.47;;;8.60;91.70;;;;;;5548820;25;20012;-73
2024/04/16 01:38:13;;;;;;;95.65;4.22;;;8.60;91.90;;;;;;5546132;25;20444;-74
2024/04/16 01:40:39;;;;;;;0.63;0.60;;;8.60;91.90;;;;;;5543890;25;20015;-73
2024/04/16 01:43:04;;;;;;;346.75;13.85;;;8.60;92.00;;;;;;5538639;25;19996;-73
2024/04/16 01:45:30;;;;;;;117.18;3.55;;;8.60;92.10;;;;;;5547751;25;20069;-73
2024/04/16 01:47:56;;;;;;;16.52;2.15;;;8.60;92.10;;;;;;5541846;25;19996;-73
2024/04/16 01:50:21;;;;;;;14.10;1.17;;;8.60;92.20;;;;;;5545080;25;19997;-73
2024/04/16 01:52:47;;;;;;;0.30;0.30;;;8.60;92.30;;;;;;5549339;25;20011;-73
2024/04/16 01:55:13;;;;;;;0.90;0.40;;;8.50;92.30;;;;;;5528552;25;20005;-73
2024/04/16 01:57:39;;;;;;;27.83;1.90;;;8.50;92.60;;;;;;5546147;25;19997;-73
2024/04/16 02:00:06;;;;;;;102.88;3.28;;;8.60;92.40;;;;;;5543345;25;20840;-73
2024/04/16 02:02:37;;;;;;;1.38;1.13;;;8.50;92.40;;;;;;5548932;25;20065;-73
2024/04/16 02:05:04;;;;;;;1.92;0.60;;;8.50;92.40;;;;;;5546601;25;20005;-73
2024/04/16 02:07:32;;;;;;;1046.45;26.08;;;8.50;92.60;;;;;;5528937;25;20056;-73
2024/04/16 02:09:58;;;;;;;4.72;0.75;;;8.50;92.60;;;;;;5549433;25;20004;-73
2024/04/16 02:12:24;;;;;;;65.30;2.55;;;8.50;92.70;;;;;;5546212;25;19993;-73
2024/04/16 02:14:50;;;;;;;1.15;0.70;;;8.50;92.80;;;;;;5552621;25;20008;-73
2024/04/16 02:17:16;;;;;;;169.65;5.38;;;8.50;92.80;;;;;;5542617;25;19997;-73
2024/04/16 02:19:43;;;;;;;42.50;1.75;;;8.50;92.90;;;;;;5554843;25;19996;-73
2024/04/16 02:22:08;;;;;;;2.97;0.63;;;8.50;92.90;;;;;;5541014;25;19993;-73
2024/04/16 02:24:34;;;;;;;1.13;0.57;;;8.50;93.00;;;;;;5541890;25;20020;-73
2024/04/16 02:27:00;;;;;;;16.00;1.50;;;8.50;93.00;;;;;;5553206;25;20032;-73
2024/04/16 02:29:29;;;;;;;148.55;7.95;;;8.50;92.90;;;;;;5535771;25;21180;-73
2024/04/16 02:31:54;;;;;;;1.75;0.85;;;8.50;92.90;;;;;;5530908;25;20001;-73
2024/04/16 02:34:20;;;;;;;0.32;0.32;;;8.60;92.80;;;;;;5542761;25;20404;-73
2024/04/16 02:36:46;;;;;;;159.77;15.15;;;8.60;92.70;;;;;;5547964;25;20015;-73
2024/04/16 02:39:11;;;;;;;84.63;5.03;;;8.60;92.70;;;;;;5558936;25;19997;-74
2024/04/16 02:41:37;;;;;;;176.52;13.48;;;8.60;92.70;;;;;;5527504;25;19994;-73
2024/04/16 02:44:03;;;;;;;0.52;0.40;;;8.60;92.70;;;;;;5555511;25;20469;-73
2024/04/16 02:46:29;;;;;;;126.15;7.03;;;8.60;92.80;;;;;;5542288;25;19997;-74
2024/04/16 02:48:54;;;;;;;170.70;9.45;;;8.60;92.80;;;;;;5539759;25;20007;-73
2024/04/16 02:51:21;;;;;;;0.77;0.47;;;8.60;92.80;;;;;;5545666;25;20455;-73
2024/04/16 02:53:47;;;;;;;1.92;1.00;;;8.70;92.90;;;;;;5552442;25;20085;-73
2024/04/16 02:56:13;;;;;;;122.05;4.15;;;8.60;92.90;;;;;;5526725;25;20087;-73
2024/04/16 02:58:38;;;;;;;63.92;2.88;;;8.60;93.00;;;;;;5537099;25;20040;-73
2024/04/16 03:01:05;;;;;;;71.80;2.63;;;8.60;93.00;;;;;;5554190;25;20321;-73
2024/04/16 03:03:33;;;;;;;71.22;3.78;;;8.60;93.10;;;;;;5537850;25;20001;-73
2024/04/16 03:05:59;;;;;;;144.82;3.33;;;8.60;93.20;;;;;;5577218;25;20008;-73
2024/04/16 03:08:25;;;;;;;237.27;13.55;;;8.70;93.30;;;;;;5558913;25;20432;-74
2024/04/16 03:10:51;;;;;;;164.23;9.60;;;8.60;93.30;;;;;;5537134;25;20365;-73
2024/04/16 03:13:16;;;;;;;135.68;6.85;;;8.60;93.30;;;;;;5559204;25;19997;-75
2024/04/16 03:15:42;;;;;;;257.20;7.53;;;8.70;93.30;;;;;;5540942;25;19993;-73
2024/04/16 03:18:07;;;;;;;315.10;23.15;;;8.70;93.30;;;;;;5546433;25;20004;-74
2024/04/16 03:20:33;;;;;;;192.68;11.35;;;8.70;93.30;;;;;;5549962;25;20394;-72
2024/04/16 03:22:59;;;;;;;109.85;6.38;;;8.70;93.30;;;;;;5552392;25;20425;-73
2024/04/16 03:25:24;;;;;;;247.60;13.85;;;8.80;93.20;;;;;;5554783;25;20069;-73
2024/04/16 03:27:50;;;;;;;129.45;6.65;;;8.80;93.20;;;;;;5533368;25;19997;-73
2024/04/16 03:30:16;;;;;;;65.97;4.88;;;8.80;93.20;;;;;;5537142;25;20084;-73
2024/04/16 03:32:42;;;;;;;247.60;31.33;;;8.90;93.20;;;;;;5546868;25;19998;-74
2024/04/16 03:35:08;;;;;;;181.40;6.72;;;8.90;93.30;;;;;;5552136;25;20388;-73
2024/04/16 03:37:34;;;;;;;71.70;2.50;;;8.90;93.20;;;;;;5532497;25;19998;-73
2024/04/16 03:40:00;;;;;;;119.05;4.57;;;8.90;93.20;;;;;;5538890;25;20015;-73
2024/04/16 03:42:26;;;;;;;1.70;1.13;;;8.80;93.20;;;;;;5536867;25;20057;-73
2024/04/16 03:44:53;;;;;;;306.55;26.10;;;8.90;93.30;;;;;;5538049;25;20008;-74
2024/04/16 03:47:20;;;;;;;323.73;25.27;;;8.80;93.30;;;;;;5549346;25;19997;-74
2024/04/16 03:49:45;;;;;;;225.13;21.23;;;8.80;93.30;;;;;;5543412;25;20456;-73
2024/04/16 03:52:11;;;;;;;234.35;23.38;;;8.90;93.30;;;;;;5541789;25;20008;-73
2024/04/16 03:54:37;;;;;;;219.82;46.67;;;9.00;93.20;;;;;;5544196;25;19997;-74
2024/04/16 03:57:03;;;;;;;331.60;16.98;;;9.00;93.20;;;;;;5549242;25;20001;-73
2024/04/16 04:00:59;;;;;;;0.63;0.47;;;9.00;93.10;;;;;;5546556;25;19997;-74
2024/04/16 04:02:24;;;;;;;103.75;7.38;;;9.10;93.10;;;;;;5548627;25;20041;-74
2024/04/16 04:04:50;;;;;;;179.38;16.50;;;9.10;93.20;;;;;;5544960;25;20001;-74
2024/04/16 04:07:16;;;;;;;0.43;0.43;;;9.00;93.20;;;;;;5538538;25;20008;-74
2024/04/16 04:09:42;;;;;;;118.65;5.63;;;9.10;93.20;;;;;;5541265;25;20073;-73
2024/04/16 04:12:08;;;;;;;382.42;51.40;;;9.00;93.10;;;;;;5519115;25;19997;-74
2024/04/16 04:14:34;;;;;;;57.42;7.07;;;9.00;93.10;;;;;;5535757;25;20073;-73
2024/04/16 04:17:00;;;;;;;46.20;3.75;;;9.10;93.10;;;;;;5525108;25;20006;-74
2024/04/16 04:19:25;;;;;;;2.67;0.50;;;9.10;93.10;;;;;;5540872;25;20001;-73
2024/04/16 04:21:51;;;;;;;197.27;18.92;;;9.20;93.00;;;;;;5534153;25;20029;-74
2024/04/16 04:24:17;;;;;;;2.58;0.85;;;9.30;92.80;;;;;;5542688;25;19997;-74
2024/04/16 04:26:43;;;;;;;173.88;10.07;;;9.40;92.60;;;;;;5539282;25;20452;-73
2024/04/16 04:29:09;;;;;;;64.10;3.60;;;9.50;92.40;;;;;;5552344;25;20020;-73
2024/04/16 04:31:35;;;;;;;2.90;1.25;;;9.50;92.20;;;;;;5542105;25;20394;-73
2024/04/16 04:34:01;;;;;;;8.30;0.70;;;9.60;92.30;;;;;;5547030;25;20016;-73
2024/04/16 04:36:27;;;;;;;3.33;0.77;;;9.70;92.20;;;;;;5546583;25;20483;-73
2024/04/16 04:38:52;;;;;;;59.13;3.65;;;9.80;92.10;;;;;;5554013;25;20036;-73
2024/04/16 04:41:18;;;;;;;49.78;4.30;;;9.80;92.00;;;;;;5545747;25;20653;-73
2024/04/16 04:43:44;;;;;;;151.55;12.93;;;9.80;91.70;;;;;;5537329;25;20574;-74
2024/04/16 04:46:10;;;;;;;48.03;3.13;;;9.80;91.80;;;;;;5545561;25;20001;-74
2024/04/16 04:48:36;;;;;;;59.33;2.90;;;9.90;91.70;;;;;;5545213;25;20009;-73
2024/04/16 04:51:02;;;;;;;1.15;0.70;;;9.90;91.70;;;;;;5544387;25;20071;-73
2024/04/16 04:53:29;;;;;;;61.95;3.25;;;10.00;91.80;;;;;;5545443;25;20009;-74
2024/04/16 04:55:54;;;;;;;60.58;3.72;;;10.00;91.90;;;;;;5539189;25;20022;-73
2024/04/16 04:58:20;;;;;;;2.80;0.80;;;10.10;91.80;;;;;;5545028;25;20000;-73
2024/04/16 05:00:47;;;;;;;3.58;1.20;;;10.10;91.60;;;;;;5554255;25;20331;-74
2024/04/16 05:03:12;;;;;;;55.55;2.95;;;10.20;91.50;;;;;;5546491;25;20015;-74
2024/04/16 05:05:41;;;;;;;106.13;9.85;;;10.20;91.20;;;;;;5550403;25;20005;-74
2024/04/16 05:08:07;;;;;;;49.33;3.72;;;10.30;91.20;;;;;;5538672;25;20002;-74
2024/04/16 05:10:32;;;;;;;1.70;0.70;;;10.30;91.10;;;;;;5543950;25;20025;-74
2024/04/16 05:12:58;;;;;;;60.95;2.75;;;10.30;91.10;;;;;;5547751;25;20501;-74
2024/04/16 05:15:24;;;;;;;48.88;3.17;;;10.30;91.00;;;;;;5552235;25;19996;-74
2024/04/16 05:17:49;;;;;;;90.15;5.47;;;10.30;90.90;;;;;;5537062;25;20458;-74
2024/04/16 05:20:16;;;;;;;51.22;3.40;;;10.30;90.90;;;;;;5551800;25;20081;-74
2024/04/16 05:22:43;;;;;;;403.23;42.22;;;10.30;90.90;;;;;;5553731;25;20017;-74
2024/04/16 05:25:09;;;;;;;3.17;1.00;;;10.30;90.90;;;;;;5542312;25;20019;-74
2024/04/16 05:27:34;;;;;;;123.70;5.78;;;10.40;90.90;;;;;;5542938;25;20081;-73
2024/04/16 05:30:00;;;;;;;123.82;9.27;;;10.40;91.10;;;;;;5547571;25;20013;-76
2024/04/16 05:32:26;;;;;;;52.50;3.28;;;10.40;91.50;;;;;;5545536;25;20036;-74
2024/04/16 05:34:51;;;;;;;2.97;1.10;;;10.40;91.60;;;;;;5544815;25;20009;-74
2024/04/16 05:37:17;;;;;;;2.75;1.00;;;10.40;92.30;;;;;;5544116;25;20009;-73
2024/04/16 05:39:43;;;;;;;2.05;1.00;;;10.40;92.60;;;;;;5544745;25;20081;-74
2024/04/16 05:42:11;;;;;;;2.72;0.90;;;10.40;92.70;;;;;;5540357;25;20013;-73
2024/04/16 05:44:37;;;;;;;154.32;10.05;;;10.40;92.60;;;;;;5543757;25;20012;-75
2024/04/16 05:47:03;;;;;;;13.20;1.30;;;10.40;92.50;;;;;;5541394;25;20000;-73
2024/04/16 05:49:28;;;;;;;1.23;0.80;;;10.40;92.00;;;;;;5538149;25;20457;-73
2024/04/16 05:51:54;;;;;;;44.90;3.90;;;10.50;92.00;;;;;;5530935;25;20068;-74
2024/04/16 05:54:20;;;;;;;1.60;0.77;;;10.50;91.90;;;;;;5545873;25;21608;-74
2024/04/16 05:56:46;;;;;;;2.50;1.10;;;10.60;91.70;;;;;;5536928;25;20571;-74
2024/04/16 05:59:12;;;;;;;63.45;2.90;;;10.60;91.80;;;;;;5541786;25;20001;-74
2024/04/16 06:01:37;;;;;;;3.72;1.30;;;10.60;91.70;;;;;;5548559;25;19997;-74
2024/04/16 06:04:03;;;;;;;2.08;1.10;;;10.70;91.70;;;;;;5530867;25;20103;-74
2024/04/16 06:06:28;;;;;;;3.67;0.98;;;10.60;91.70;;;;;;5518867;25;20001;-74
2024/04/16 06:08:54;;;;;;;2.25;1.08;;;10.60;91.70;;;;;;5526111;25;20476;-72
2024/04/16 06:11:20;;;;;;;4.03;1.23;;;10.70;91.60;;;;;;5527721;25;20001;-75
2024/04/16 06:13:45;;;;;;;2.63;1.05;;;10.70;91.70;;;;;;5554656;25;20071;-75
2024/04/16 06:16:11;;;;;;;5.03;1.27;;;10.70;91.70;;;;;;5531367;25;20005;-75
2024/04/16 06:18:37;;;;;;;2.75;1.17;;;10.80;91.70;;;;;;5536531;25;20073;-74
2024/04/16 06:21:03;;;;;;;1.60;1.00;;;10.80;91.70;;;;;;5530000;25;20012;-74
2024/04/16 06:23:29;;;;;;;1.27;1.10;;;10.80;91.70;;;;;;5542652;25;20000;-74
2024/04/16 06:25:54;;;;;;;5.22;1.35;;;10.80;91.80;;;;;;5541220;25;20004;-74
2024/04/16 06:28:21;;;;;;;4.63;1.70;;;10.80;91.90;;;;;;5544130;25;19993;-75
2024/04/16 06:30:47;;;;;;;1.75;1.13;;;10.80;92.10;;;;;;5542300;25;20004;-73
2024/04/16 06:33:12;;;;;;;0.80;0.80;;;10.80;92.20;;;;;;5543673;25;20349;-78
2024/04/16 06:35:38;;;;;;;3.00;1.08;;;10.80;92.30;;;;;;5547540;25;20004;-75
2024/04/16 06:38:04;;;;;;;3.78;1.48;;;10.80;92.50;;;;;;5553544;25;20000;-75
2024/04/16 06:40:30;;;;;;;1.90;1.00;;;10.80;92.50;;;;;;5527639;25;19998;-75
2024/04/16 06:42:55;;;;;;;2.10;0.95;;;10.80;92.60;;;;;;5529587;25;19997;-75
2024/04/16 06:45:21;;;;;;;0.70;0.70;;;10.70;92.70;;;;;;5536585;25;20103;-75
2024/04/16 06:47:47;;;;;;;3.13;1.27;;;10.80;92.70;;;;;;5532405;25;20027;-75
2024/04/16 06:50:12;;;;;;;3.60;0.85;;;10.80;92.70;;;;;;5515590;25;20015;-75
2024/04/16 06:52:38;;;;;;;1.30;1.20;;;10.80;92.80;;;;;;5520487;25;20072;-75
2024/04/16 06:55:04;;;;;;;2.08;1.08;;;10.90;92.70;;;;;;5514314;25;20013;-75
2024/04/16 06:57:30;;;;;;;60.05;2.30;;;10.90;92.90;;;;;;5537476;25;20033;-75
2024/04/16 06:59:56;;;;;;;2.83;1.33;;;10.90;93.00;;;;;;5516359;25;20074;-75
2024/04/16 07:02:22;;;;;;;4.57;1.08;;;10.90;93.20;;;;;;5519712;25;20012;-75
2024/04/16 07:04:47;;;;;;;1.20;0.93;;;10.90;93.30;;;;;;5535849;25;20012;-75
2024/04/16 07:07:13;;;;;;;2.67;0.85;;;10.90;93.30;;;;;;5518836;25;20026;-73
2024/04/16 07:09:39;;;;;;;6.38;1.10;;;10.90;93.20;;;;;;5530714;25;20005;-76
2024/04/16 07:12:04;;;;;;;1.95;0.90;;;10.90;93.40;;;;;;5536757;25;20470;-75
2024/04/16 07:14:30;;;;;;;2.40;0.90;;;10.90;93.40;;;;;;5536478;25;20440;-76
2024/04/16 07:16:56;;;;;;;2.42;0.98;;;10.90;93.50;;;;;;5537654;25;20016;-76
2024/04/16 07:19:21;;;;;;;2.08;1.05;;;11.00;93.60;;;;;;5554283;25;20000;-77
2024/04/16 07:21:47;;;;;;;1.02;0.73;;;11.00;93.00;;;;;;5532247;25;19998;-76
2024/04/16 07:24:13;;;;;;;1.65;1.10;;;11.10;93.20;;;;;;5522306;25;20009;-76
2024/04/16 07:26:38;;;;;;;2.45;1.30;;;11.10;93.00;;;;;;5530562;25;20353;-75
2024/04/16 07:29:04;;;;;;;2.05;1.00;;;11.20;93.20;;;;;;5512408;25;20348;-75
2024/04/16 07:31:30;;;;;;;6.72;1.00;;;11.30;93.10;;;;;;5543478;25;20005;-72
2024/04/16 07:33:55;;;;;;;1.13;1.00;;;11.30;93.00;;;;;;5534300;25;20001;-75
2024/04/16 07:36:21;;;;;;;4.20;1.52;;;11.30;92.80;;;;;;5534639;25;20053;-75
2024/04/16 07:38:47;;;;;;;1.25;0.90;;;11.30;92.80;;;;;;5528562;25;19993;-75
2024/04/16 07:41:13;;;;;;;1.30;1.00;;;11.30;93.00;;;;;;5526830;25;20029;-74
2024/04/16 07:43:39;;;;;;;2.05;0.98;;;11.40;92.90;;;;;;5533065;25;20066;-75
2024/04/16 07:46:04;;;;;;;3.13;1.33;;;11.40;92.90;;;;;;5533629;25;20000;-72
2024/04/16 07:48:30;;;;;;;3.75;1.20;;;11.40;92.80;;;;;;5542952;25;20009;-75
2024/04/16 07:50:55;;;;;;;3.25;0.93;;;11.40;92.70;;;;;;5524803;25;20100;-75
2024/04/16 07:53:21;;;;;;;3.42;1.17;;;11.50;92.80;;;;;;5521678;25;20008;-75
2024/04/16 07:55:47;;;;;;;0.75;0.60;;;11.50;92.90;;;;;;5532894;25;19994;-74
2024/04/16 07:58:12;;;;;;;0.57;0.55;;;11.50;92.80;;;;;;5549187;25;19997;-74
2024/04/16 08:00:39;;;;;;;1.55;0.73;;;11.60;92.50;;;;;;5536542;25;20005;-75
2024/04/16 08:03:07;;;;;;;1.02;0.70;;;11.70;92.30;;;;;;5539783;25;20033;-75
2024/04/16 08:05:33;;;;;;;1.95;0.70;;;11.70;92.20;;;;;;5521681;25;20098;-75
2024/04/16 08:07:58;;;;;;;2.25;0.77;;;11.80;92.00;;;;;;5519873;25;19993;-74
2024/04/16 08:10:24;;;;;;;0.70;0.70;;;11.90;91.80;;;;;;5533198;25;20332;-74
2024/04/16 08:12:50;;;;;;;1.23;0.65;;;11.90;91.80;;;;;;5536844;25;20008;-74
2024/04/16 08:15:15;;;;;;;1.13;0.73;;;12.00;91.60;;;;;;5520854;25;20385;-75
2024/04/16 08:17:41;;;;;;;1.02;0.68;;;12.00;91.40;;;;;;5518038;25;19997;-75
2024/04/16 08:20:07;;;;;;;1.88;1.05;;;12.00;91.20;;;;;;5553610;25;20004;-75
2024/04/16 08:22:32;;;;;;;1.38;0.90;;;11.90;91.60;;;;;;5556507;25;20011;-75
2024/04/16 08:24:59;;;;;;;4.90;1.00;;;11.90;91.80;;;;;;5540855;25;19997;-75
2024/04/16 08:27:25;;;;;;;0.65;0.65;;;11.80;91.90;;;;;;5520574;25;20096;-75
2024/04/16 08:29:51;;;;;;;0.88;0.75;;;11.80;92.00;;;;;;5540498;25;19997;-75
2024/04/16 08:32:20;;;;;;;2.97;0.70;;;11.80;92.20;;;;;;5544415;25;20448;-75
2024/04/16 08:34:46;;;;;;;1.45;0.98;;;11.80;91.90;;;;;;5539616;25;20344;-74
2024/04/16 08:37:15;;;;;;;3.83;1.00;;;11.80;91.90;;;;;;5521635;25;20012;-75
2024/04/16 08:39:40;;;;;;;1.20;0.90;;;11.80;91.90;;;;;;5514120;25;20005;-75
2024/04/16 08:42:11;;;;;;;0.77;0.70;;;11.90;91.70;;;;;;5526090;25;20000;-75
2024/04/16 08:44:38;;;;;;;2.47;0.73;;;11.90;91.80;;;;;;5543193;25;20007;-75
2024/04/16 08:47:05;;;;;;;1.60;0.73;;;11.90;92.00;;;;;;5529492;25;19997;-75
2024/04/16 08:49:32;;;;;;;1.13;1.02;;;12.00;92.00;;;;;;5532132;25;20471;-75
2024/04/16 08:51:58;;;;;;;1.20;0.90;;;11.90;92.20;;;;;;5530835;25;20341;-75
2024/04/16 08:54:27;;;;;;;0.80;0.80;;;11.90;91.90;;;;;;5555087;25;20000;-75
2024/04/16 08:56:53;;;;;;;0.95;0.80;;;12.00;91.90;;;;;;5529075;25;20102;-75
2024/04/16 08:59:18;;;;;;;0.90;0.85;;;12.00;92.10;;;;;;5521626;25;20009;-74
2024/04/16 09:01:48;;;;;;;1.95;1.10;;;12.00;92.30;;;;;;5517466;25;19997;-75
2024/04/16 09:04:18;;;;;;;1.35;1.10;;;12.00;92.50;;;;;;5519916;25;20017;-75
2024/04/16 09:06:46;;;;;;;2.60;0.80;;;12.00;92.30;;;;;;5520849;25;20015;-75
2024/04/16 09:09:12;;;;;;;0.73;0.73;;;12.10;92.20;;;;;;5517320;25;19997;-75
2024/04/16 09:11:40;;;;;;;3.47;1.20;;;12.10;92.20;;;;;;5518324;25;20015;-75
2024/04/16 09:14:06;;;;;;;0.77;0.77;;;12.10;92.80;;;;;;5537834;25;20011;-74
2024/04/16 09:16:32;;;;;;;2.10;1.00;;;12.00;92.70;;;;;;5547660;25;20040;-75
2024/04/16 09:19:08;;;;;;;0.70;0.60;;;12.00;92.90;;;;;;5518379;25;20020;-75
2024/04/16 09:21:34;;;;;;;1.45;0.85;;;12.10;92.90;;;;;;5555269;25;20014;-75
2024/04/16 09:24:02;;;;;;;0.70;0.70;;;12.10;92.90;;;;;;5547889;25;19997;-75
2024/04/16 09:26:28;;;;;;;3.40;1.10;;;12.10;93.60;;;;;;5542569;25;19997;-76
2024/04/16 09:28:53;;;;;;;2.38;1.10;;;12.10;93.60;;;;;;5528790;25;20373;-75
2024/04/16 09:31:19;;;;;;;4.10;1.20;;;12.10;93.70;;;;;;5530504;25;20008;-73
2024/04/16 09:33:45;;;;;;;0.73;0.73;;;12.10;93.60;;;;;;5541417;25;20333;-76
2024/04/16 09:36:14;;;;;;;1.88;1.15;;;12.10;93.90;;;;;;5519737;25;19993;-76
2024/04/16 09:38:44;;;;;;;1.27;1.17;;;12.00;93.80;;;;;;5524937;25;20002;-75
2024/04/16 09:41:11;;;;;;;2.33;1.15;;;12.00;94.00;;;;;;5522631;25;19996;-75
2024/04/16 09:43:40;;;;;;;2.72;1.10;;;12.00;94.20;;;;;;5544612;25;20032;-76
2024/04/16 09:46:14;;;;;;;1.58;1.00;;;12.00;94.20;;;;;;5522437;25;19998;-75
2024/04/16 09:48:41;;;;;;;1.70;1.00;;;12.00;94.40;;;;;;5535088;25;20072;-74
2024/04/16 09:51:08;;;;;;;0.90;0.85;;;12.10;94.10;;;;;;5529376;25;20348;-77
2024/04/16 09:53:39;;;;;;;1.27;1.02;;;12.10;94.50;;;;;;5549557;25;20500;-76
2024/04/16 09:56:07;;;;;;;1.60;0.93;;;12.10;94.70;;;;;;5538458;25;20015;-75
2024/04/16 09:58:33;;;;;;;1.73;1.10;;;12.10;94.50;;;;;;5548598;25;20012;-76
2024/04/16 10:01:03;;;;;;;0.73;0.73;;;12.10;94.70;;;;;;5519277;25;20001;-75
2024/04/16 10:03:30;;;;;;;0.80;0.80;;;12.10;94.70;;;;;;5526732;25;19997;-75
2024/04/16 10:05:56;;;;;;;2.38;0.80;;;12.20;94.80;;;;;;5522360;25;20450;-75
2024/04/16 10:08:24;;;;;;;0.95;0.70;;;12.20;94.50;;;;;;5529193;25;20009;-76
2024/04/16 10:10:52;;;;;;;1.58;0.90;;;12.30;94.50;;;;;;5522714;25;20013;-76
2024/04/16 10:13:18;;;;;;;0.80;0.80;;;12.20;94.60;;;;;;5524176;25;20020;-75
2024/04/16 10:15:44;;;;;;;0.98;0.98;;;12.30;94.70;;;;;;5519466;25;20014;-76
2024/04/16 10:18:14;;;;;;;0.80;0.80;;;12.30;94.50;;;;;;5515119;25;19998;-76
2024/04/16 10:20:49;;;;;;;1.75;0.90;;;12.40;94.30;;;;;;5519978;25;20001;-76
2024/04/16 10:23:19;;;;;;;0.70;0.70;;;12.40;94.60;;;;;;5526487;25;20069;-76
2024/04/16 10:25:54;;;;;;;0.60;0.60;;;12.40;94.60;;;;;;5518028;25;20809;-76
2024/04/16 10:28:24;;;;;;;0.70;0.70;;;12.40;94.90;;;;;;5517379;25;20451;-77
2024/04/16 10:31:06;;;;;;;0.68;0.68;;;12.40;94.00;;;;;;5522415;25;20002;-76
2024/04/16 10:33:37;;;;;;;187.05;5.38;;;12.50;94.20;;;;;;5546693;25;19996;-76
2024/04/16 10:36:07;;;;;;;46.58;1.27;;;12.60;94.60;;;;;;5544945;25;19997;-77
2024/04/16 10:38:35;;;;;;;0.70;0.70;;;12.50;94.90;;;;;;5546547;25;20332;-76
2024/04/16 10:41:00;;;;;;;0.65;0.60;;;12.50;94.60;;;;;;5530078;25;20005;-75
2024/04/16 10:43:27;;;;;;;4.95;0.70;;;12.60;94.70;;;;;;5543356;25;20068;-75
2024/04/16 10:45:54;;;;;;;0.43;0.43;;;12.50;95.10;;;;;;5530208;25;19993;-75
2024/04/16 10:48:21;;;;;;;2.80;0.63;;;12.60;95.00;;;;;;5533935;25;20076;-75
2024/04/16 10:50:48;;;;;;;5.05;0.90;;;12.50;95.20;;;;;;5527083;25;20004;-75
2024/04/16 10:53:15;;;;;;;2.35;0.50;;;12.60;94.60;;;;;;5546586;25;19997;-74
2024/04/16 10:55:50;;;;;;;66.28;2.33;;;12.70;94.80;;;;;;5535230;25;20009;-74
2024/04/16 10:58:18;;;;;;;1.48;0.52;;;12.70;94.90;;;;;;5532502;25;20012;-74
2024/04/16 11:00:44;;;;;;;1.30;0.43;;;12.70;94.50;;;;;;5522913;25;20001;-74
2024/04/16 11:03:11;;;;;;;0.52;0.50;;;12.70;94.90;;;;;;5543783;25;20001;-74
2024/04/16 11:05:39;;;;;;;1.08;0.63;;;12.80;94.90;;;;;;5521427;25;20483;-74
2024/04/16 11:08:07;;;;;;;0.50;0.50;;;12.80;94.50;;;;;;5537940;25;20001;-75
2024/04/16 11:10:36;;;;;;;1.85;0.40;;;12.80;94.90;;;;;;5530246;25;20031;-75
2024/04/16 11:13:03;;;;;;;0.75;0.60;;;12.80;95.20;;;;;;5522914;25;20001;-76
2024/04/16 11:15:33;;;;;;;59.10;1.95;;;12.80;95.10;;;;;;5534105;25;20001;-75
2024/04/16 11:17:59;;;;;;;0.80;0.50;;;12.90;95.20;;;;;;5535971;25;20081;-75
2024/04/16 11:20:26;;;;;;;1.88;0.63;;;13.00;95.10;;;;;;5551881;25;20004;-75
2024/04/16 11:22:52;;;;;;;0.82;0.50;;;13.10;95.00;;;;;;5554040;25;19996;-75
2024/04/16 11:25:18;;;;;;;296.98;17.35;;;13.10;94.50;;;;;;5547351;25;20015;-75
2024/04/16 11:27:44;;;;;;;1.98;0.50;;;13.10;94.90;;;;;;5527284;25;20005;-75
2024/04/16 11:30:12;;;;;;;1.17;0.50;;;13.00;94.90;;;;;;5561436;25;20000;-76
2024/04/16 11:32:38;;;;;;;0.85;0.73;;;13.00;94.70;;;;;;5549252;25;20464;-77
2024/04/16 11:35:11;;;;;;;1.52;0.50;;;13.00;94.80;;;;;;5547439;25;20049;-76
2024/04/16 11:37:42;;;;;;;130.50;4.05;;;13.00;95.00;;;;;;5542932;25;20838;-75
2024/04/16 11:40:09;;;;;;;0.95;0.50;;;13.10;94.80;;;;;;5533445;25;20420;-75
2024/04/16 11:42:35;;;;;;;43.40;2.55;;;13.10;94.40;;;;;;5541109;25;19996;-75
2024/04/16 11:45:01;;;;;;;0.52;0.50;;;13.10;94.70;;;;;;5533669;25;19996;-75
2024/04/16 11:47:27;;;;;;;0.80;0.52;;;13.30;94.40;;;;;;5526325;25;19996;-75
2024/04/16 11:49:53;;;;;;;0.93;0.75;;;13.30;94.70;;;;;;5542266;25;20000;-75
2024/04/16 11:52:18;;;;;;;1.38;0.60;;;13.50;94.00;;;;;;5548519;25;20221;-75
2024/04/16 11:54:44;;;;;;;1.38;0.93;;;13.50;94.10;;;;;;5546984;25;20001;-76
2024/04/16 11:57:10;;;;;;;1.13;0.63;;;13.50;94.30;;;;;;5550753;25;20015;-75
2024/04/16 11:59:36;;;;;;;173.07;7.43;;;13.70;93.90;;;;;;5538538;25;20001;-76
2024/04/16 12:02:03;;;;;;;4.38;1.17;;;13.70;94.30;;;;;;5527544;25;20001;-75
2024/04/16 12:04:29;;;;;;;3.40;1.30;;;13.70;94.60;;;;;;5550209;25;20028;-72
2024/04/16 12:06:55;;;;;;;5.32;1.30;;;13.70;94.50;;;;;;5551311;25;20001;-74
2024/04/16 12:09:21;;;;;;;2.45;1.17;;;13.70;94.50;;;;;;5539864;25;20048;-74
2024/04/16 12:11:47;;;;;;;225.45;6.00;;;13.80;94.10;;;;;;5540706;25;20000;-73
2024/04/16 12:14:12;;;;;;;1.90;1.35;;;13.80;93.80;;;;;;5544552;25;20001;-74
2024/04/16 12:16:40;;;;;;;5.30;1.10;;;13.90;93.60;;;;;;5538922;25;20009;-74
2024/04/16 12:19:06;;;;;;;61.05;2.78;;;14.00;93.30;;;;;;5545082;25;21009;-74
2024/04/16 12:21:32;;;;;;;229.30;5.43;;;14.00;93.40;;;;;;5545069;25;20049;-74
2024/04/16 12:23:57;;;;;;;232.95;5.65;;;14.00;93.60;;;;;;5540965;25;20068;-74
2024/04/16 12:26:23;;;;;;;139.52;4.95;;;13.80;94.40;;;;;;5539428;25;19993;-73
2024/04/16 12:28:49;;;;;;;76.90;7.25;;;13.60;94.60;;;;;;5541636;25;20077;-74
2024/04/16 12:31:16;;;;;;;6.93;0.80;;;13.40;95.00;;;;;;5554087;25;20075;-74
2024/04/16 12:33:43;;;;;;;145.55;3.65;;;13.50;95.20;;;;;;5535193;25;20042;-74
2024/04/16 12:36:09;;;;;;;1.75;0.68;;;13.50;95.20;;;;;;5542874;25;20017;-73
2024/04/16 12:38:35;;;;;;;3.80;0.80;;;13.50;94.90;;;;;;5541503;25;20001;-73